createdAt,value
2023-01-19T00:00:06.128Z,1.90
2023-01-19T00:02:32.782Z,1.81
2023-01-19T00:04:59.543Z,1.82
2023-01-19T00:07:26.193Z,1.71
2023-01-19T00:09:52.775Z,1.74
2023-01-19T00:12:19.277Z,1.86
2023-01-19T00:14:45.703Z,1.81
2023-01-19T00:17:12.199Z,1.79
2023-01-19T00:19:38.755Z,1.79
2023-01-19T00:22:06.070Z,1.80
2023-01-19T00:24:33.086Z,1.92
2023-01-19T00:27:00.254Z,2.02
2023-01-19T00:29:27.765Z,2.07
2023-01-19T00:31:54.312Z,2.05
2023-01-19T00:34:20.908Z,2.08
2023-01-19T00:36:47.375Z,2.13
2023-01-19T00:39:13.961Z,2.11
2023-01-19T00:41:58.791Z,2.30
2023-01-19T00:44:26.126Z,2.31
2023-01-19T00:46:52.723Z,2.08
2023-01-19T00:49:19.251Z,2.17
2023-01-19T00:51:45.752Z,2.31
2023-01-19T00:54:12.262Z,2.53
2023-01-19T00:56:38.814Z,2.66
2023-01-19T00:59:05.345Z,2.59
2023-01-19T01:01:45.283Z,2.64
2023-01-19T01:04:13.643Z,2.84
2023-01-19T01:06:40.487Z,2.75
2023-01-19T01:09:11.949Z,2.78
2023-01-19T01:11:42.644Z,2.95
2023-01-19T01:14:11.446Z,3.14
2023-01-19T01:16:38.311Z,2.90
2023-01-19T01:19:05.098Z,3.11
2023-01-19T01:21:31.769Z,3.13
2023-01-19T01:23:58.420Z,3.23
2023-01-19T01:26:27.115Z,3.23
2023-01-19T01:28:54.282Z,3.25
2023-01-19T01:31:20.847Z,3.28
2023-01-19T01:33:47.412Z,3.16
2023-01-19T01:36:13.989Z,3.25
2023-01-19T01:38:41.441Z,3.33
2023-01-19T01:41:09.143Z,3.24
2023-01-19T01:43:45.645Z,3.07
2023-01-19T01:46:15.467Z,3.18
2023-01-19T01:48:47.573Z,3.18
2023-01-19T01:51:26.190Z,3.30
2023-01-19T01:53:55.983Z,3.33
2023-01-19T01:56:26.922Z,3.41
2023-01-19T01:58:53.732Z,3.16
2023-01-19T02:01:39.425Z,3.02
2023-01-19T02:04:05.988Z,3.09
2023-01-19T02:06:32.549Z,3.25
2023-01-19T02:09:27.130Z,3.25
2023-01-19T02:12:13.555Z,3.17
2023-01-19T02:14:40.075Z,2.78
2023-01-19T02:17:07.191Z,2.76
2023-01-19T02:19:42.178Z,2.84
2023-01-19T02:22:20.530Z,2.84
2023-01-19T02:24:47.350Z,2.92
2023-01-19T02:27:13.932Z,2.99
2023-01-19T02:29:40.643Z,3.01
2023-01-19T02:32:07.558Z,3.00
2023-01-19T02:34:35.073Z,2.99
2023-01-19T02:37:07.257Z,3.03
2023-01-19T02:39:43.011Z,2.89
2023-01-19T02:42:13.953Z,2.88
2023-01-19T02:44:43.451Z,2.96
2023-01-19T02:47:10.208Z,2.92
2023-01-19T02:49:36.808Z,2.81
2023-01-19T02:52:04.291Z,2.82
2023-01-19T02:54:45.848Z,2.85
2023-01-19T02:57:40.081Z,2.71
2023-01-19T03:00:09.808Z,2.73
2023-01-19T03:03:03.241Z,2.79
2023-01-19T03:05:35.748Z,2.88
2023-01-19T03:08:15.335Z,2.88
2023-01-19T03:11:00.640Z,2.74
2023-01-19T03:13:42.119Z,2.34
2023-01-19T03:16:18.339Z,2.25
2023-01-19T03:18:49.736Z,2.47
2023-01-19T03:21:19.602Z,2.62
2023-01-19T03:23:47.708Z,2.62
2023-01-19T03:26:18.815Z,2.66
2023-01-19T03:28:47.235Z,2.64
2023-01-19T03:31:21.727Z,2.65
2023-01-19T03:33:53.890Z,2.69
2023-01-19T03:36:29.686Z,2.73
2023-01-19T03:38:58.336Z,2.75
2023-01-19T03:41:26.995Z,2.69
2023-01-19T03:43:53.721Z,2.70
2023-01-19T03:46:21.045Z,2.78
2023-01-19T03:48:48.090Z,2.67
2023-01-19T03:51:16.087Z,2.59
2023-01-19T03:53:43.080Z,2.69
2023-01-19T03:56:17.960Z,2.81
2023-01-19T03:58:44.824Z,2.62
2023-01-19T04:01:11.442Z,2.58
2023-01-19T04:03:38.097Z,2.61
2023-01-19T04:06:04.847Z,2.70
2023-01-19T04:08:32.528Z,2.64
2023-01-19T04:10:59.182Z,2.63
2023-01-19T04:13:30.144Z,2.52
2023-01-19T04:16:01.339Z,2.52
2023-01-19T04:18:29.627Z,2.55
2023-01-19T04:21:00.348Z,2.56
2023-01-19T04:23:27.239Z,2.47
2023-01-19T04:26:20.651Z,2.48
2023-01-19T04:28:47.160Z,2.48
2023-01-19T04:31:14.439Z,2.49
2023-01-19T04:33:41.010Z,2.57
2023-01-19T04:36:08.541Z,2.56
2023-01-19T04:38:35.359Z,2.54
2023-01-19T04:41:01.913Z,2.47
2023-01-19T04:43:29.433Z,2.44
2023-01-19T04:45:57.129Z,2.39
2023-01-19T04:48:23.634Z,2.27
2023-01-19T04:50:52.510Z,2.31
2023-01-19T04:53:19.025Z,2.33
2023-01-19T04:55:47.186Z,2.24
2023-01-19T04:58:14.065Z,2.17
2023-01-19T05:00:40.553Z,2.27
2023-01-19T05:03:07.147Z,2.18
2023-01-19T05:05:34.192Z,2.07
2023-01-19T05:08:00.939Z,1.95
2023-01-19T05:10:27.892Z,1.97
2023-01-19T05:12:54.994Z,2.03
2023-01-19T05:15:21.590Z,2.14
2023-01-19T05:17:48.144Z,2.12
2023-01-19T05:20:16.429Z,2.22
2023-01-19T05:22:48.297Z,2.22
2023-01-19T05:25:14.772Z,2.24
2023-01-19T05:27:41.249Z,2.15
2023-01-19T05:30:08.598Z,1.88
2023-01-19T05:32:35.041Z,1.99
2023-01-19T05:35:01.936Z,2.15
2023-01-19T05:37:28.419Z,2.02
2023-01-19T05:39:54.884Z,2.05
2023-01-19T05:42:21.441Z,2.18
2023-01-19T05:44:48.256Z,2.18
2023-01-19T05:47:14.933Z,2.19
2023-01-19T05:49:41.777Z,2.21
2023-01-19T05:52:08.275Z,2.20
2023-01-19T05:54:34.748Z,2.16
2023-01-19T05:57:01.621Z,2.25
2023-01-19T05:59:28.943Z,2.18
2023-01-19T06:01:57.162Z,2.28
2023-01-19T06:04:23.927Z,2.40
2023-01-19T06:06:51.103Z,2.50
2023-01-19T06:09:18.008Z,2.54
2023-01-19T06:11:45.440Z,2.50
2023-01-19T06:14:12.620Z,2.36
2023-01-19T06:16:39.165Z,2.35
2023-01-19T06:19:05.746Z,2.44
2023-01-19T06:21:32.573Z,2.34
2023-01-19T06:23:59.102Z,2.23
2023-01-19T06:26:26.321Z,2.19
2023-01-19T06:28:53.036Z,2.27
2023-01-19T06:31:19.821Z,2.34
2023-01-19T06:33:46.485Z,2.40
2023-01-19T06:36:12.985Z,2.49
2023-01-19T06:38:39.434Z,2.54
2023-01-19T06:41:06.097Z,2.49
2023-01-19T06:43:32.727Z,2.44
2023-01-19T06:46:00.709Z,2.43
2023-01-19T06:48:27.380Z,2.45
2023-01-19T06:50:54.204Z,2.28
2023-01-19T06:53:22.255Z,2.16
2023-01-19T06:55:49.004Z,2.10
2023-01-19T06:58:15.763Z,2.16
2023-01-19T07:00:43.106Z,2.09
2023-01-19T07:03:22.189Z,2.06
2023-01-19T07:05:58.099Z,2.14
2023-01-19T07:08:25.016Z,2.10
2023-01-19T07:11:26.759Z,2.02
2023-01-19T07:13:40.554Z,1.92
2023-01-19T07:16:08.339Z,2.04
2023-01-19T07:18:36.218Z,2.00
2023-01-19T07:21:02.985Z,2.00
2023-01-19T07:23:30.747Z,2.02
2023-01-19T07:25:58.232Z,1.97
2023-01-19T07:28:25.906Z,1.89
2023-01-19T07:30:53.939Z,1.84
2023-01-19T07:33:25.408Z,1.77
2023-01-19T07:35:52.924Z,1.88
2023-01-19T07:38:19.638Z,1.97
2023-01-19T07:40:48.895Z,2.05
2023-01-19T07:43:16.249Z,1.94
2023-01-19T07:45:43.411Z,2.13
2023-01-19T07:48:10.067Z,2.33
2023-01-19T07:50:36.579Z,2.39
2023-01-19T07:53:07.585Z,2.34
2023-01-19T07:55:34.363Z,2.35
2023-01-19T07:58:01.102Z,2.11
2023-01-19T08:00:27.682Z,2.11
2023-01-19T08:03:00.162Z,2.24
2023-01-19T08:05:28.909Z,2.37
2023-01-19T08:07:57.653Z,2.31
2023-01-19T08:10:27.622Z,2.17
2023-01-19T08:12:55.993Z,2.21
2023-01-19T08:15:24.931Z,2.24
2023-01-19T08:17:57.349Z,2.27
2023-01-19T08:20:25.209Z,2.21
2023-01-19T08:22:51.893Z,2.27
2023-01-19T08:25:18.544Z,2.50
2023-01-19T08:27:45.093Z,2.57
2023-01-19T08:30:11.886Z,2.50
2023-01-19T08:32:38.625Z,2.51
2023-01-19T08:35:06.180Z,2.65
2023-01-19T08:37:34.214Z,2.82
2023-01-19T08:40:00.829Z,2.80
2023-01-19T08:42:28.066Z,2.62
2023-01-19T08:44:58.659Z,2.77
2023-01-19T08:47:26.534Z,2.97
2023-01-19T08:49:52.999Z,3.16
2023-01-19T08:52:19.460Z,3.03
2023-01-19T08:54:45.924Z,2.82
2023-01-19T08:57:12.479Z,2.60
2023-01-19T08:59:38.990Z,2.35
2023-01-19T09:02:06.038Z,2.27
2023-01-19T09:04:34.510Z,2.20
2023-01-19T09:07:01.067Z,2.28
2023-01-19T09:09:27.580Z,2.52
2023-01-19T09:11:54.997Z,2.90
2023-01-19T09:14:21.557Z,2.93
2023-01-19T09:16:48.519Z,3.15
2023-01-19T09:19:14.998Z,3.25
2023-01-19T09:21:41.560Z,3.41
2023-01-19T09:24:08.937Z,3.46
2023-01-19T09:26:36.576Z,3.71
2023-01-19T09:29:03.087Z,3.67
2023-01-19T09:31:30.161Z,3.85
2023-01-19T09:33:56.696Z,4.03
2023-01-19T09:36:23.181Z,4.22
2023-01-19T09:38:49.774Z,4.47
2023-01-19T09:41:22.153Z,4.80
2023-01-19T09:43:56.736Z,4.98
2023-01-19T09:46:33.422Z,5.25
2023-01-19T09:49:05.068Z,5.23
2023-01-19T09:51:36.212Z,5.18
2023-01-19T09:54:22.529Z,5.21
2023-01-19T09:56:52.515Z,5.12
2023-01-19T09:59:29.789Z,5.11
2023-01-19T10:02:18.589Z,5.00
2023-01-19T10:05:01.391Z,4.94
2023-01-19T10:07:45.467Z,4.87
2023-01-19T10:10:28.826Z,4.93
2023-01-19T10:13:22.613Z,4.94
2023-01-19T10:16:14.644Z,4.79
2023-01-19T10:18:52.694Z,4.67
2023-01-19T10:21:19.759Z,4.48
2023-01-19T10:23:52.185Z,4.40
2023-01-19T10:26:25.404Z,4.30
2023-01-19T10:28:57.591Z,4.34
2023-01-19T10:31:28.108Z,4.34
2023-01-19T10:33:54.759Z,4.41
2023-01-19T10:36:29.935Z,4.33
2023-01-19T10:38:56.582Z,4.33
2023-01-19T10:41:36.094Z,4.39
2023-01-19T10:44:05.409Z,4.73
2023-01-19T10:46:45.072Z,5.00
2023-01-19T10:49:31.294Z,5.17
2023-01-19T10:51:59.182Z,5.17
2023-01-19T10:54:27.704Z,5.25
2023-01-19T10:57:01.070Z,5.07
2023-01-19T10:59:38.249Z,4.67
2023-01-19T11:02:17.875Z,4.64
2023-01-19T11:04:46.884Z,4.79
2023-01-19T11:07:24.955Z,4.83
2023-01-19T11:10:13.659Z,5.03
2023-01-19T11:12:56.219Z,4.98
2023-01-19T11:15:26.047Z,5.21
2023-01-19T11:17:53.673Z,5.55
2023-01-19T11:20:29.170Z,5.64
2023-01-19T11:23:08.108Z,5.99
2023-01-19T11:25:36.181Z,5.64
2023-01-19T11:28:03.610Z,5.96
2023-01-19T11:30:30.564Z,6.17
2023-01-19T11:32:57.185Z,6.44
2023-01-19T11:35:41.625Z,7.38
2023-01-19T11:38:20.376Z,8.22
2023-01-19T11:40:52.940Z,9.23
2023-01-19T11:43:21.517Z,8.96
2023-01-19T11:45:48.115Z,9.30
2023-01-19T11:48:25.447Z,9.54
2023-01-19T11:50:52.490Z,10.02
2023-01-19T11:53:26.388Z,10.27
2023-01-19T11:56:04.672Z,10.31
2023-01-19T11:58:37.153Z,10.23
2023-01-19T12:01:11.131Z,10.38
2023-01-19T12:03:42.501Z,10.59
2023-01-19T12:06:16.397Z,11.10
2023-01-19T12:08:48.319Z,11.20
2023-01-19T12:11:19.503Z,11.80
2023-01-19T12:13:46.987Z,12.43
2023-01-19T12:16:22.406Z,12.67
2023-01-19T12:18:58.976Z,13.33
2023-01-19T12:21:26.575Z,13.25
2023-01-19T12:24:23.294Z,13.82
2023-01-19T12:27:00.507Z,13.67
2023-01-19T12:29:33.750Z,13.54
2023-01-19T12:32:18.638Z,13.38
2023-01-19T12:34:48.604Z,13.58
2023-01-19T12:37:32.191Z,13.93
2023-01-19T12:40:29.174Z,14.84
2023-01-19T12:43:00.210Z,15.92
2023-01-19T12:45:32.927Z,16.46
2023-01-19T12:47:59.764Z,16.71
2023-01-19T12:50:26.916Z,17.27
2023-01-19T12:52:58.389Z,17.84
2023-01-19T12:55:34.592Z,18.02
2023-01-19T12:58:24.084Z,18.72
2023-01-19T13:01:15.363Z,19.79
2023-01-19T13:04:09.672Z,20.75
2023-01-19T13:06:48.530Z,20.92
2023-01-19T13:09:32.098Z,19.97
2023-01-19T13:12:11.375Z,19.74
2023-01-19T13:14:38.247Z,18.10
2023-01-19T13:17:16.977Z,16.76
2023-01-19T13:19:52.312Z,16.01
2023-01-19T13:22:47.482Z,15.73
2023-01-19T13:25:26.585Z,16.10
2023-01-19T13:27:53.266Z,16.31
2023-01-19T13:30:24.864Z,16.47
2023-01-19T13:32:51.601Z,16.91
2023-01-19T13:35:19.970Z,17.01
2023-01-19T13:37:46.498Z,17.44
2023-01-19T13:40:32.128Z,17.38
2023-01-19T13:42:58.890Z,17.09
2023-01-19T13:45:35.528Z,16.83
2023-01-19T13:48:07.582Z,17.15
2023-01-19T13:50:38.743Z,17.63
2023-01-19T13:53:19.349Z,16.56
2023-01-19T13:55:47.975Z,16.98
2023-01-19T13:58:23.380Z,16.42
2023-01-19T14:00:50.291Z,15.57
2023-01-19T14:03:22.952Z,15.96
2023-01-19T14:05:51.695Z,14.88
2023-01-19T14:08:19.255Z,13.73
2023-01-19T14:10:48.644Z,12.12
2023-01-19T14:13:25.962Z,10.14
2023-01-19T14:15:56.687Z,9.30
2023-01-19T14:18:26.963Z,8.98
2023-01-19T14:20:56.413Z,8.49
2023-01-19T14:23:51.821Z,8.07
2023-01-19T14:26:37.135Z,7.88
2023-01-19T14:29:09.636Z,7.66
2023-01-19T14:31:50.728Z,7.56
2023-01-19T14:34:34.188Z,7.44
2023-01-19T14:37:06.397Z,7.02
2023-01-19T14:39:36.024Z,6.80
2023-01-19T14:42:06.554Z,6.72
2023-01-19T14:44:38.500Z,6.62
2023-01-19T14:47:06.846Z,6.54
2023-01-19T14:49:39.553Z,6.30
2023-01-19T14:52:27.697Z,6.24
2023-01-19T14:54:56.237Z,6.16
2023-01-19T14:57:22.775Z,6.12
2023-01-19T14:59:49.648Z,6.07
2023-01-19T15:02:19.275Z,5.87
2023-01-19T15:04:48.147Z,5.75
2023-01-19T15:07:19.366Z,5.66
2023-01-19T15:09:47.154Z,5.55
2023-01-19T15:12:17.347Z,5.47
2023-01-19T15:14:45.450Z,5.30
2023-01-19T15:17:17.484Z,5.21
2023-01-19T15:19:43.952Z,5.17
2023-01-19T15:22:12.667Z,5.15
2023-01-19T15:24:40.873Z,5.14
2023-01-19T15:27:13.401Z,4.98
2023-01-19T15:29:40.339Z,4.86
2023-01-19T15:32:12.484Z,4.84
2023-01-19T15:34:39.102Z,4.94
2023-01-19T15:37:05.625Z,4.88
2023-01-19T15:39:32.347Z,4.81
2023-01-19T15:41:59.351Z,4.69
2023-01-19T15:44:25.949Z,4.82
2023-01-19T15:46:54.594Z,5.02
2023-01-19T15:49:21.475Z,5.08
2023-01-19T15:51:48.014Z,5.07
2023-01-19T15:54:15.354Z,5.05
2023-01-19T15:56:42.639Z,4.56
2023-01-19T15:59:09.287Z,4.38
2023-01-19T16:01:36.305Z,4.32
2023-01-19T16:04:06.255Z,4.38
2023-01-19T16:06:33.379Z,4.26
2023-01-19T16:09:01.467Z,4.03
2023-01-19T16:11:30.655Z,3.95
2023-01-19T16:13:57.267Z,4.01
2023-01-19T16:16:25.261Z,3.91
2023-01-19T16:18:52.353Z,3.86
2023-01-19T16:21:18.921Z,3.80
2023-01-19T16:23:45.772Z,3.31
2023-01-19T16:26:30.645Z,2.63
2023-01-19T16:28:59.182Z,2.18
2023-01-19T16:31:29.219Z,1.81
2023-01-19T16:33:56.125Z,1.54
2023-01-19T16:36:22.814Z,1.58
2023-01-19T16:38:49.970Z,1.68
2023-01-19T16:41:17.151Z,1.64
2023-01-19T16:43:43.892Z,1.65
2023-01-19T16:46:20.094Z,1.63
2023-01-19T16:48:46.764Z,1.65
2023-01-19T16:51:13.196Z,1.60
2023-01-19T16:53:39.802Z,1.69
2023-01-19T16:56:07.974Z,1.94
2023-01-19T16:58:37.483Z,1.91
2023-01-19T17:01:08.969Z,1.90
2023-01-19T17:03:35.900Z,1.83
2023-01-19T17:06:02.487Z,1.75
2023-01-19T17:08:28.976Z,1.75
2023-01-19T17:10:56.116Z,1.65
2023-01-19T17:13:23.256Z,1.73
2023-01-19T17:15:50.038Z,1.71
2023-01-19T17:18:16.512Z,1.74
2023-01-19T17:20:43.043Z,1.73
2023-01-19T17:23:09.665Z,1.90
2023-01-19T17:25:36.105Z,2.02
2023-01-19T17:28:02.551Z,2.11
2023-01-19T17:30:29.168Z,1.73
2023-01-19T17:32:55.826Z,1.62
2023-01-19T17:35:22.352Z,1.88
2023-01-19T17:37:52.187Z,1.97
2023-01-19T17:40:18.654Z,1.93
2023-01-19T17:42:45.107Z,1.64
2023-01-19T17:45:11.623Z,1.45
2023-01-19T17:47:38.767Z,1.30
2023-01-19T17:50:05.653Z,1.02
2023-01-19T17:52:32.190Z,0.85
2023-01-19T17:54:58.705Z,0.59
2023-01-19T17:57:25.993Z,0.57
2023-01-19T17:59:52.480Z,0.53
2023-01-19T18:02:23.520Z,0.54
2023-01-19T18:04:51.887Z,0.68
2023-01-19T18:07:19.047Z,0.57
2023-01-19T18:09:45.914Z,0.42
2023-01-19T18:12:12.501Z,0.41
2023-01-19T18:14:40.253Z,0.35
2023-01-19T18:17:07.022Z,0.19
2023-01-19T18:19:33.600Z,0.25
2023-01-19T18:22:00.219Z,0.33
2023-01-19T18:24:26.836Z,0.30
2023-01-19T18:26:55.578Z,0.35
2023-01-19T18:29:22.345Z,0.39
2023-01-19T18:31:49.301Z,0.54
2023-01-19T18:34:16.049Z,0.70
2023-01-19T18:36:42.905Z,0.84
2023-01-19T18:39:09.501Z,0.75
2023-01-19T18:41:42.217Z,0.71
2023-01-19T18:44:11.838Z,0.81
2023-01-19T18:46:39.074Z,0.93
2023-01-19T18:49:05.783Z,0.98
2023-01-19T18:51:32.542Z,0.96
2023-01-19T18:53:59.704Z,1.01
2023-01-19T18:56:28.951Z,1.02
2023-01-19T18:58:56.590Z,0.93
2023-01-19T19:01:32.271Z,0.93
2023-01-19T19:03:59.492Z,0.89
2023-01-19T19:06:27.115Z,0.72
2023-01-19T19:08:56.051Z,0.79
2023-01-19T19:11:24.693Z,0.88
2023-01-19T19:13:52.129Z,0.80
2023-01-19T19:16:18.745Z,0.95
2023-01-19T19:18:45.331Z,1.00
2023-01-19T19:21:12.542Z,0.99
2023-01-19T19:23:39.150Z,1.00
2023-01-19T19:26:09.033Z,1.12
2023-01-19T19:28:37.131Z,1.16
2023-01-19T19:31:06.334Z,1.13
2023-01-19T19:33:33.469Z,1.10
2023-01-19T19:36:00.156Z,1.12
2023-01-19T19:38:28.783Z,1.20
2023-01-19T19:41:00.427Z,1.15
2023-01-19T19:43:27.403Z,1.16
2023-01-19T19:46:02.512Z,1.28
2023-01-19T19:48:29.482Z,1.03
2023-01-19T19:50:58.625Z,0.73
2023-01-19T19:53:26.812Z,0.76
2023-01-19T19:56:01.155Z,0.87
2023-01-19T19:58:28.925Z,0.94
2023-01-19T20:00:55.889Z,0.95
2023-01-19T20:03:26.486Z,0.98
2023-01-19T20:05:53.520Z,1.04
2023-01-19T20:08:20.020Z,1.12
2023-01-19T20:10:46.475Z,1.22
2023-01-19T20:13:13.375Z,1.20
2023-01-19T20:15:39.870Z,1.27
2023-01-19T20:18:06.670Z,1.00
2023-01-19T20:20:34.249Z,0.84
2023-01-19T20:23:01.614Z,0.85
2023-01-19T20:25:28.863Z,0.70
2023-01-19T20:27:57.598Z,0.64
2023-01-19T20:30:24.761Z,0.79
2023-01-19T20:32:51.425Z,0.93
2023-01-19T20:35:18.587Z,0.92
2023-01-19T20:37:45.161Z,0.97
2023-01-19T20:40:11.880Z,0.91
2023-01-19T20:42:41.333Z,0.82
2023-01-19T20:45:08.457Z,0.91
2023-01-19T20:47:34.929Z,0.95
2023-01-19T20:50:02.036Z,0.88
2023-01-19T20:52:28.511Z,0.90
2023-01-19T20:54:56.061Z,0.78
2023-01-19T20:57:22.555Z,0.78
2023-01-19T20:59:49.489Z,0.92
2023-01-19T21:02:16.769Z,1.02
2023-01-19T21:04:43.386Z,0.98
2023-01-19T21:07:10.110Z,0.62
2023-01-19T21:09:38.188Z,0.50
2023-01-19T21:12:04.957Z,0.68
2023-01-19T21:14:31.427Z,0.65
2023-01-19T21:16:58.515Z,0.66
2023-01-19T21:19:25.981Z,0.67
2023-01-19T21:21:52.648Z,0.87
2023-01-19T21:24:19.084Z,0.94
2023-01-19T21:26:45.559Z,0.98
2023-01-19T21:29:14.667Z,0.87
2023-01-19T21:31:41.834Z,0.79
2023-01-19T21:34:09.273Z,0.50
2023-01-19T21:36:35.969Z,0.54
2023-01-19T21:39:03.684Z,0.55
2023-01-19T21:41:30.514Z,0.58
2023-01-19T21:43:58.421Z,0.53
2023-01-19T21:46:29.077Z,0.31
2023-01-19T21:49:04.803Z,0.17
2023-01-19T21:51:34.667Z,0.14
2023-01-19T21:54:02.719Z,0.18
2023-01-19T21:56:30.667Z,0.31
2023-01-19T21:58:58.522Z,0.46
2023-01-19T22:01:26.096Z,0.61
2023-01-19T22:03:57.318Z,0.61
2023-01-19T22:06:26.364Z,0.61
2023-01-19T22:08:53.028Z,0.51
2023-01-19T22:11:21.057Z,0.57
2023-01-19T22:13:47.880Z,0.57
2023-01-19T22:16:17.189Z,0.55
2023-01-19T22:18:46.229Z,0.37
2023-01-19T22:21:15.431Z,0.13
2023-01-19T22:23:42.802Z,0.04
2023-01-19T22:26:11.398Z,-0.08
2023-01-19T22:28:37.935Z,-0.25
2023-01-19T22:31:10.485Z,-0.25
2023-01-19T22:33:37.028Z,-0.21
2023-01-19T22:36:24.804Z,-0.14
2023-01-19T22:38:54.138Z,-0.30
2023-01-19T22:41:31.954Z,-0.36
2023-01-19T22:44:02.476Z,-0.58
2023-01-19T22:46:31.060Z,-0.46
2023-01-19T22:48:59.204Z,-0.21
2023-01-19T22:51:27.411Z,-0.07
2023-01-19T22:53:54.733Z,0.03
2023-01-19T22:56:24.963Z,0.12
2023-01-19T22:58:52.365Z,0.17
2023-01-19T23:01:27.217Z,0.19
2023-01-19T23:03:55.582Z,-0.06
2023-01-19T23:06:27.463Z,-0.32
2023-01-19T23:08:55.720Z,-0.58
2023-01-19T23:11:25.855Z,-0.87
2023-01-19T23:13:52.564Z,-0.92
2023-01-19T23:16:19.903Z,-1.06
2023-01-19T23:18:47.316Z,-1.10
2023-01-19T23:21:16.967Z,-1.00
2023-01-19T23:23:44.149Z,-1.01
2023-01-19T23:26:17.222Z,-1.13
2023-01-19T23:28:44.636Z,-1.10
2023-01-19T23:31:18.363Z,-1.05
2023-01-19T23:33:45.214Z,-0.96
2023-01-19T23:36:12.539Z,-1.01
2023-01-19T23:38:40.035Z,-0.71
2023-01-19T23:41:07.118Z,-0.47
2023-01-19T23:43:33.877Z,-0.40
2023-01-19T23:46:08.519Z,-0.12
2023-01-19T23:48:35.912Z,0.01
2023-01-19T23:51:10.207Z,0.01
2023-01-19T23:53:37.201Z,0.06
2023-01-19T23:56:10.859Z,0.09
2023-01-19T23:58:37.782Z,0.01
